Terminal Aerodrome Forecast
Issued by NWS Bismarck, ND

Home | Current Version | Previous Version | Text Only | Print | Product List | Glossary Off
Versions: 1 2 3 4 5 6 7 8 9 10 11 12 13 14 15 16 17

000
FTUS43 KBIS 242000 AAA
TAFISN
TAF AMD
KISN 242005Z 2420/2518 11009KT P6SM SCT080
     FM250500 10007KT P6SM BKN120
     FM251200 08007KT P6SM SCT010 BKN080
     FM251500 12009KT P6SM BKN020 OVC080=

USA.gov is the U.S. government's official web portal to all federal, state and local government web resources and services.